sensor_id;sensor_type;location;lat;lon;timestamp;temperature;humidity
13375;DHT22;6756;51.354;15.754;2022-11-11T00:03:18;6.70;99.90
13375;DHT22;6756;51.354;15.754;2022-11-11T00:07:19;6.80;99.90
13375;DHT22;6756;51.354;15.754;2022-11-11T00:11:20;6.80;99.90
13375;DHT22;6756;51.354;15.754;2022-11-11T00:15:21;6.80;99.90
13375;DHT22;6756;51.354;15.754;2022-11-11T00:19:22;6.90;99.90
13375;DHT22;6756;51.354;15.754;2022-11-11T00:23:41;6.90;99.90
13375;DHT22;6756;51.354;15.754;2022-11-11T00:28:00;6.90;99.90
13375;DHT22;6756;51.354;15.754;2022-11-11T00:32:00;6.90;99.90
13375;DHT22;6756;51.354;15.754;2022-11-11T00:36:20;6.90;99.90
13375;DHT22;6756;51.354;15.754;2022-11-11T00:40:20;6.90;99.90
13375;DHT22;6756;51.354;15.754;2022-11-11T00:44:21;6.90;99.90
13375;DHT22;6756;51.354;15.754;2022-11-11T00:48:22;7.00;99.90
13375;DHT22;6756;51.354;15.754;2022-11-11T00:52:44;7.00;99.90
13375;DHT22;6756;51.354;15.754;2022-11-11T00:56:45;6.90;22.40
13375;DHT22;6756;51.354;15.754;2022-11-11T01:00:46;6.90;1.00
13375;DHT22;6756;51.354;15.754;2022-11-11T01:04:49;6.90;1.00
13375;DHT22;6756;51.354;15.754;2022-11-11T01:08:50;6.90;1.00
13375;DHT22;6756;51.354;15.754;2022-11-11T01:12:53;6.90;1.00
13375;DHT22;6756;51.354;15.754;2022-11-11T01:17:11;6.90;1.00
13375;DHT22;6756;51.354;15.754;2022-11-11T01:21:14;6.90;1.00
13375;DHT22;6756;51.354;15.754;2022-11-11T01:25:15;6.90;1.00
13375;DHT22;6756;51.354;15.754;2022-11-11T01:29:16;6.90;1.00
13375;DHT22;6756;51.354;15.754;2022-11-11T01:33:17;6.90;1.00
13375;DHT22;6756;51.354;15.754;2022-11-11T01:37:18;7.00;1.00
13375;DHT22;6756;51.354;15.754;2022-11-11T01:41:26;7.00;99.90
13375;DHT22;6756;51.354;15.754;2022-11-11T01:45:59;7.20;99.90
13375;DHT22;6756;51.354;15.754;2022-11-11T01:50:01;7.30;63.10
13375;DHT22;6756;51.354;15.754;2022-11-11T01:54:07;7.30;99.90
13375;DHT22;6756;51.354;15.754;2022-11-11T01:58:13;7.40;64.50
13375;DHT22;6756;51.354;15.754;2022-11-11T02:02:22;7.50;99.90
13375;DHT22;6756;51.354;15.754;2022-11-11T02:06:25;7.50;69.10
13375;DHT22;6756;51.354;15.754;2022-11-11T02:10:29;7.60;99.90
13375;DHT22;6756;51.354;15.754;2022-11-11T02:14:45;7.60;99.90
13375;DHT22;6756;51.354;15.754;2022-11-11T02:18:47;7.60;99.90
13375;DHT22;6756;51.354;15.754;2022-11-11T02:23:04;7.60;99.90
13375;DHT22;6756;51.354;15.754;2022-11-11T02:27:09;7.60;99.90
13375;DHT22;6756;51.354;15.754;2022-11-11T02:31:11;7.60;99.90
13375;DHT22;6756;51.354;15.754;2022-11-11T02:35:22;7.60;99.90
13375;DHT22;6756;51.354;15.754;2022-11-11T02:39:25;7.60;99.90
13375;DHT22;6756;51.354;15.754;2022-11-11T02:43:27;7.60;99.90
13375;DHT22;6756;51.354;15.754;2022-11-11T02:47:27;7.60;99.90
13375;DHT22;6756;51.354;15.754;2022-11-11T02:51:28;7.60;99.90
13375;DHT22;6756;51.354;15.754;2022-11-11T02:55:29;7.60;99.90
13375;DHT22;6756;51.354;15.754;2022-11-11T02:59:30;7.60;99.90
13375;DHT22;6756;51.354;15.754;2022-11-11T03:03:30;7.50;99.90
13375;DHT22;6756;51.354;15.754;2022-11-11T03:07:31;7.50;99.90
13375;DHT22;6756;51.354;15.754;2022-11-11T03:11:32;7.50;99.90
13375;DHT22;6756;51.354;15.754;2022-11-11T03:15:33;7.40;99.90
13375;DHT22;6756;51.354;15.754;2022-11-11T03:19:35;7.40;1.00
13375;DHT22;6756;51.354;15.754;2022-11-11T03:23:35;7.40;16.60
13375;DHT22;6756;51.354;15.754;2022-11-11T03:27:36;7.30;99.90
13375;DHT22;6756;51.354;15.754;2022-11-11T03:31:37;7.30;99.90
13375;DHT22;6756;51.354;15.754;2022-11-11T03:35:38;7.20;99.90
13375;DHT22;6756;51.354;15.754;2022-11-11T03:39:39;7.20;99.90
13375;DHT22;6756;51.354;15.754;2022-11-11T03:43:40;7.10;99.90
13375;DHT22;6756;51.354;15.754;2022-11-11T03:47:40;7.00;1.00
13375;DHT22;6756;51.354;15.754;2022-11-11T03:51:41;7.00;1.00
13375;DHT22;6756;51.354;15.754;2022-11-11T03:55:42;7.00;1.30
13375;DHT22;6756;51.354;15.754;2022-11-11T03:59:43;6.90;99.90
13375;DHT22;6756;51.354;15.754;2022-11-11T04:03:43;6.90;99.90
13375;DHT22;6756;51.354;15.754;2022-11-11T04:08:03;6.90;99.90
13375;DHT22;6756;51.354;15.754;2022-11-11T04:12:23;6.90;99.90
13375;DHT22;6756;51.354;15.754;2022-11-11T04:16:24;6.90;1.00
13375;DHT22;6756;51.354;15.754;2022-11-11T04:20:25;6.80;96.40
13375;DHT22;6756;51.354;15.754;2022-11-11T04:24:44;6.80;99.90
13375;DHT22;6756;51.354;15.754;2022-11-11T04:29:03;6.80;1.00
13375;DHT22;6756;51.354;15.754;2022-11-11T04:33:27;6.80;75.00
13375;DHT22;6756;51.354;15.754;2022-11-11T04:37:30;6.80;99.90
13375;DHT22;6756;51.354;15.754;2022-11-11T04:41:31;6.80;1.00
13375;DHT22;6756;51.354;15.754;2022-11-11T04:45:32;6.80;99.90
13375;DHT22;6756;51.354;15.754;2022-11-11T04:49:35;6.80;99.90
13375;DHT22;6756;51.354;15.754;2022-11-11T04:53:36;6.80;1.00
13375;DHT22;6756;51.354;15.754;2022-11-11T04:57:45;6.80;1.00
13375;DHT22;6756;51.354;15.754;2022-11-11T05:01:46;6.80;99.90
13375;DHT22;6756;51.354;15.754;2022-11-11T05:06:26;6.90;1.00
13375;DHT22;6756;51.354;15.754;2022-11-11T05:10:45;7.00;99.90
13375;DHT22;6756;51.354;15.754;2022-11-11T05:14:46;7.10;99.90
13375;DHT22;6756;51.354;15.754;2022-11-11T05:19:05;7.10;11.00
13375;DHT22;6756;51.354;15.754;2022-11-11T05:23:26;7.20;99.90
13375;DHT22;6756;51.354;15.754;2022-11-11T05:27:46;7.30;1.00
13375;DHT22;6756;51.354;15.754;2022-11-11T05:31:47;7.40;99.90
13375;DHT22;6756;51.354;15.754;2022-11-11T05:35:48;7.50;1.00
13375;DHT22;6756;51.354;15.754;2022-11-11T05:39:49;7.60;1.00
13375;DHT22;6756;51.354;15.754;2022-11-11T05:43:50;7.70;99.90
13375;DHT22;6756;51.354;15.754;2022-11-11T05:47:50;7.80;29.50
13375;DHT22;6756;51.354;15.754;2022-11-11T05:51:51;7.80;99.90
13375;DHT22;6756;51.354;15.754;2022-11-11T05:55:52;7.80;99.90
13375;DHT22;6756;51.354;15.754;2022-11-11T05:59:53;7.90;61.90
13375;DHT22;6756;51.354;15.754;2022-11-11T06:03:54;7.90;1.00
13375;DHT22;6756;51.354;15.754;2022-11-11T06:07:55;8.00;99.90
13375;DHT22;6756;51.354;15.754;2022-11-11T06:11:55;8.00;99.90
13375;DHT22;6756;51.354;15.754;2022-11-11T06:15:57;8.10;99.90
13375;DHT22;6756;51.354;15.754;2022-11-11T06:19:58;8.10;99.90
13375;DHT22;6756;51.354;15.754;2022-11-11T06:23:59;8.10;99.90
13375;DHT22;6756;51.354;15.754;2022-11-11T06:28:00;8.10;99.90
13375;DHT22;6756;51.354;15.754;2022-11-11T06:32:00;8.10;99.90
13375;DHT22;6756;51.354;15.754;2022-11-11T06:36:01;8.10;99.90
13375;DHT22;6756;51.354;15.754;2022-11-11T06:40:02;8.10;99.90
13375;DHT22;6756;51.354;15.754;2022-11-11T06:44:03;8.10;99.90
13375;DHT22;6756;51.354;15.754;2022-11-11T06:48:05;8.20;92.20
13375;DHT22;6756;51.354;15.754;2022-11-11T06:52:06;8.20;79.20
13375;DHT22;6756;51.354;15.754;2022-11-11T06:56:07;8.20;66.80
13375;DHT22;6756;51.354;15.754;2022-11-11T07:00:09;8.20;50.20
13375;DHT22;6756;51.354;15.754;2022-11-11T07:04:10;8.30;49.90
13375;DHT22;6756;51.354;15.754;2022-11-11T07:08:14;8.30;49.50
13375;DHT22;6756;51.354;15.754;2022-11-11T07:12:15;8.40;43.50
13375;DHT22;6756;51.354;15.754;2022-11-11T07:16:16;8.40;15.80
13375;DHT22;6756;51.354;15.754;2022-11-11T07:20:16;8.50;1.00
13375;DHT22;6756;51.354;15.754;2022-11-11T07:24:17;8.60;1.00
13375;DHT22;6756;51.354;15.754;2022-11-11T07:28:18;8.80;1.00
13375;DHT22;6756;51.354;15.754;2022-11-11T07:32:19;8.90;1.00
13375;DHT22;6756;51.354;15.754;2022-11-11T07:36:20;9.00;1.00
13375;DHT22;6756;51.354;15.754;2022-11-11T07:40:20;9.10;1.00
13375;DHT22;6756;51.354;15.754;2022-11-11T07:44:21;9.20;1.00
13375;DHT22;6756;51.354;15.754;2022-11-11T07:48:22;9.20;1.00
13375;DHT22;6756;51.354;15.754;2022-11-11T07:52:23;9.30;99.90
13375;DHT22;6756;51.354;15.754;2022-11-11T07:56:24;9.40;99.90
13375;DHT22;6756;51.354;15.754;2022-11-11T08:00:25;9.60;99.90
13375;DHT22;6756;51.354;15.754;2022-11-11T08:04:25;9.70;99.90
13375;DHT22;6756;51.354;15.754;2022-11-11T08:08:26;9.80;99.90
13375;DHT22;6756;51.354;15.754;2022-11-11T08:12:27;9.90;99.90
13375;DHT22;6756;51.354;15.754;2022-11-11T08:16:46;10.10;99.90
13375;DHT22;6756;51.354;15.754;2022-11-11T08:20:47;10.30;99.90
13375;DHT22;6756;51.354;15.754;2022-11-11T08:24:48;10.40;99.90
13375;DHT22;6756;51.354;15.754;2022-11-11T08:28:50;10.50;99.90
13375;DHT22;6756;51.354;15.754;2022-11-11T08:32:59;10.50;99.90
13375;DHT22;6756;51.354;15.754;2022-11-11T08:37:00;10.60;99.90
13375;DHT22;6756;51.354;15.754;2022-11-11T08:41:02;10.70;99.90
13375;DHT22;6756;51.354;15.754;2022-11-11T08:45:04;10.70;99.90
13375;DHT22;6756;51.354;15.754;2022-11-11T08:49:05;10.70;99.90
13375;DHT22;6756;51.354;15.754;2022-11-11T08:53:06;10.80;99.90
13375;DHT22;6756;51.354;15.754;2022-11-11T08:57:08;10.90;99.90
13375;DHT22;6756;51.354;15.754;2022-11-11T09:01:12;11.00;99.90
13375;DHT22;6756;51.354;15.754;2022-11-11T09:05:13;11.20;99.90
13375;DHT22;6756;51.354;15.754;2022-11-11T09:09:14;11.30;99.90
13375;DHT22;6756;51.354;15.754;2022-11-11T09:13:15;11.50;99.90
13375;DHT22;6756;51.354;15.754;2022-11-11T09:17:16;11.60;99.90
13375;DHT22;6756;51.354;15.754;2022-11-11T09:21:17;11.70;99.90
13375;DHT22;6756;51.354;15.754;2022-11-11T09:25:19;11.80;99.90
13375;DHT22;6756;51.354;15.754;2022-11-11T09:29:20;11.80;98.30
13375;DHT22;6756;51.354;15.754;2022-11-11T09:33:20;11.90;90.50
13375;DHT22;6756;51.354;15.754;2022-11-11T09:37:21;11.90;89.70
13375;DHT22;6756;51.354;15.754;2022-11-11T09:50:01;11.80;82.50
13375;DHT22;6756;51.354;15.754;2022-11-11T09:54:06;12.00;82.40
13375;DHT22;6756;51.354;15.754;2022-11-11T09:58:16;12.10;75.20
13375;DHT22;6756;51.354;15.754;2022-11-11T10:06:31;12.30;45.70
13375;DHT22;6756;51.354;15.754;2022-11-11T10:10:52;12.40;42.60
13375;DHT22;6756;51.354;15.754;2022-11-11T10:14:54;12.50;25.90
13375;DHT22;6756;51.354;15.754;2022-11-11T10:23:15;13.00;7.70
13375;DHT22;6756;51.354;15.754;2022-11-11T10:27:18;13.50;1.00
13375;DHT22;6756;51.354;15.754;2022-11-11T10:31:21;13.70;1.00
13375;DHT22;6756;51.354;15.754;2022-11-11T10:35:28;13.90;1.00
13375;DHT22;6756;51.354;15.754;2022-11-11T10:39:44;14.00;1.00
13375;DHT22;6756;51.354;15.754;2022-11-11T10:43:48;14.10;1.00
13375;DHT22;6756;51.354;15.754;2022-11-11T10:52:35;14.20;1.00
13375;DHT22;6756;51.354;15.754;2022-11-11T10:56:56;14.10;1.00
13375;DHT22;6756;51.354;15.754;2022-11-11T11:01:00;14.10;1.00
13375;DHT22;6756;51.354;15.754;2022-11-11T11:05:10;14.20;1.00
13375;DHT22;6756;51.354;15.754;2022-11-11T11:14:33;14.30;1.00
13375;DHT22;6756;51.354;15.754;2022-11-11T11:18:36;14.30;1.00
13375;DHT22;6756;51.354;15.754;2022-11-11T11:22:51;14.30;1.00
13375;DHT22;6756;51.354;15.754;2022-11-11T11:27:00;14.40;1.00
13375;DHT22;6756;51.354;15.754;2022-11-11T11:31:06;14.40;1.00
13375;DHT22;6756;51.354;15.754;2022-11-11T11:35:07;14.30;1.00
13375;DHT22;6756;51.354;15.754;2022-11-11T11:39:08;14.20;1.00
13375;DHT22;6756;51.354;15.754;2022-11-11T11:43:34;14.10;1.00
13375;DHT22;6756;51.354;15.754;2022-11-11T11:52:24;13.90;1.00
13375;DHT22;6756;51.354;15.754;2022-11-11T11:56:35;13.80;1.00
13375;DHT22;6756;51.354;15.754;2022-11-11T12:00:58;13.80;1.00
13375;DHT22;6756;51.354;15.754;2022-11-11T12:05:06;13.90;1.00
13375;DHT22;6756;51.354;15.754;2022-11-11T12:26:39;13.90;1.00
13375;DHT22;6756;51.354;15.754;2022-11-11T12:36:14;14.10;1.00
13375;DHT22;6756;51.354;15.754;2022-11-11T12:40:32;14.00;1.00
13375;DHT22;6756;51.354;15.754;2022-11-11T12:53:30;13.90;1.00
13375;DHT22;6756;51.354;15.754;2022-11-11T12:58:02;13.80;1.00
13375;DHT22;6756;51.354;15.754;2022-11-11T13:02:28;13.80;1.00
13375;DHT22;6756;51.354;15.754;2022-11-11T13:10:53;13.70;1.00
13375;DHT22;6756;51.354;15.754;2022-11-11T13:15:23;13.70;1.00
13375;DHT22;6756;51.354;15.754;2022-11-11T13:19:43;13.60;1.00
13375;DHT22;6756;51.354;15.754;2022-11-11T13:23:44;13.50;1.00
13375;DHT22;6756;51.354;15.754;2022-11-11T13:27:55;13.50;1.00
13375;DHT22;6756;51.354;15.754;2022-11-11T13:31:59;13.30;1.00
13375;DHT22;6756;51.354;15.754;2022-11-11T13:36:02;13.30;1.00
13375;DHT22;6756;51.354;15.754;2022-11-11T13:40:32;13.20;1.00
13375;DHT22;6756;51.354;15.754;2022-11-11T13:48:46;13.10;1.00
13375;DHT22;6756;51.354;15.754;2022-11-11T13:53:04;13.00;1.00
13375;DHT22;6756;51.354;15.754;2022-11-11T13:57:17;12.90;1.00
13375;DHT22;6756;51.354;15.754;2022-11-11T14:01:19;12.80;1.00
13375;DHT22;6756;51.354;15.754;2022-11-11T14:05:20;12.70;1.00
13375;DHT22;6756;51.354;15.754;2022-11-11T14:14:44;12.60;1.00
13375;DHT22;6756;51.354;15.754;2022-11-11T14:18:46;12.50;1.00
13375;DHT22;6756;51.354;15.754;2022-11-11T14:22:52;12.40;1.00
13375;DHT22;6756;51.354;15.754;2022-11-11T14:27:03;12.30;1.00
13375;DHT22;6756;51.354;15.754;2022-11-11T14:39:41;12.00;1.00
13375;DHT22;6756;51.354;15.754;2022-11-11T14:43:43;11.90;1.00
13375;DHT22;6756;51.354;15.754;2022-11-11T14:47:43;11.80;1.00
13375;DHT22;6756;51.354;15.754;2022-11-11T14:51:48;11.70;1.00
13375;DHT22;6756;51.354;15.754;2022-11-11T14:55:54;11.60;1.00
13375;DHT22;6756;51.354;15.754;2022-11-11T14:59:55;11.50;1.00
13375;DHT22;6756;51.354;15.754;2022-11-11T15:04:01;11.40;1.00
13375;DHT22;6756;51.354;15.754;2022-11-11T15:08:33;11.30;3.10
13375;DHT22;6756;51.354;15.754;2022-11-11T15:21:35;11.00;26.80
13375;DHT22;6756;51.354;15.754;2022-11-11T15:25:55;10.90;33.20
13375;DHT22;6756;51.354;15.754;2022-11-11T15:30:12;10.80;32.70
13375;DHT22;6756;51.354;15.754;2022-11-11T15:34:31;10.80;34.30
13375;DHT22;6756;51.354;15.754;2022-11-11T15:38:35;10.70;46.50
13375;DHT22;6756;51.354;15.754;2022-11-11T15:42:38;10.60;50.20
13375;DHT22;6756;51.354;15.754;2022-11-11T15:46:41;10.60;47.10
13375;DHT22;6756;51.354;15.754;2022-11-11T15:50:42;10.60;48.50
13375;DHT22;6756;51.354;15.754;2022-11-11T15:54:43;10.60;41.40
13375;DHT22;6756;51.354;15.754;2022-11-11T15:58:44;10.60;45.80
13375;DHT22;6756;51.354;15.754;2022-11-11T16:02:45;10.50;51.00
13375;DHT22;6756;51.354;15.754;2022-11-11T16:06:46;10.40;53.60
13375;DHT22;6756;51.354;15.754;2022-11-11T16:10:54;10.40;50.10
13375;DHT22;6756;51.354;15.754;2022-11-11T16:14:56;10.40;48.70
13375;DHT22;6756;51.354;15.754;2022-11-11T16:23:01;10.30;39.00
13375;DHT22;6756;51.354;15.754;2022-11-11T16:27:04;10.30;36.80
13375;DHT22;6756;51.354;15.754;2022-11-11T16:35:37;10.20;46.00
13375;DHT22;6756;51.354;15.754;2022-11-11T16:39:39;10.10;43.40
13375;DHT22;6756;51.354;15.754;2022-11-11T16:43:41;10.10;44.70
13375;DHT22;6756;51.354;15.754;2022-11-11T16:47:45;10.10;40.30
13375;DHT22;6756;51.354;15.754;2022-11-11T16:51:47;10.10;36.20
13375;DHT22;6756;51.354;15.754;2022-11-11T16:55:48;10.10;37.40
13375;DHT22;6756;51.354;15.754;2022-11-11T16:59:52;10.10;35.50
13375;DHT22;6756;51.354;15.754;2022-11-11T17:03:58;10.00;38.80
13375;DHT22;6756;51.354;15.754;2022-11-11T17:07:59;10.00;39.30
13375;DHT22;6756;51.354;15.754;2022-11-11T17:12:00;9.90;48.20
13375;DHT22;6756;51.354;15.754;2022-11-11T17:16:03;9.90;49.90
13375;DHT22;6756;51.354;15.754;2022-11-11T17:20:16;9.80;76.60
13375;DHT22;6756;51.354;15.754;2022-11-11T17:24:17;9.70;63.10
13375;DHT22;6756;51.354;15.754;2022-11-11T17:28:18;9.60;72.50
13375;DHT22;6756;51.354;15.754;2022-11-11T17:32:19;9.50;91.10
13375;DHT22;6756;51.354;15.754;2022-11-11T17:36:20;9.30;99.70
13375;DHT22;6756;51.354;15.754;2022-11-11T17:40:21;9.20;99.90
13375;DHT22;6756;51.354;15.754;2022-11-11T17:44:22;9.10;99.90
13375;DHT22;6756;51.354;15.754;2022-11-11T17:48:23;9.00;99.90
13375;DHT22;6756;51.354;15.754;2022-11-11T17:52:25;8.90;99.90
13375;DHT22;6756;51.354;15.754;2022-11-11T17:56:26;8.90;99.90
13375;DHT22;6756;51.354;15.754;2022-11-11T18:00:27;8.80;99.90
13375;DHT22;6756;51.354;15.754;2022-11-11T18:04:28;8.80;99.90
13375;DHT22;6756;51.354;15.754;2022-11-11T18:08:29;8.80;99.90
13375;DHT22;6756;51.354;15.754;2022-11-11T18:12:30;8.70;99.90
13375;DHT22;6756;51.354;15.754;2022-11-11T18:16:31;8.70;99.90
13375;DHT22;6756;51.354;15.754;2022-11-11T18:20:32;8.70;99.90
13375;DHT22;6756;51.354;15.754;2022-11-11T18:24:33;8.70;99.90
13375;DHT22;6756;51.354;15.754;2022-11-11T18:28:36;8.70;99.90
13375;DHT22;6756;51.354;15.754;2022-11-11T18:32:37;8.60;99.90
13375;DHT22;6756;51.354;15.754;2022-11-11T18:36:38;8.60;99.90
13375;DHT22;6756;51.354;15.754;2022-11-11T18:40:39;8.70;99.90
13375;DHT22;6756;51.354;15.754;2022-11-11T18:44:40;8.60;99.90
13375;DHT22;6756;51.354;15.754;2022-11-11T18:48:41;8.50;99.90
13375;DHT22;6756;51.354;15.754;2022-11-11T18:52:42;8.50;99.90
13375;DHT22;6756;51.354;15.754;2022-11-11T18:56:43;8.50;99.90
13375;DHT22;6756;51.354;15.754;2022-11-11T19:00:43;8.50;99.90
13375;DHT22;6756;51.354;15.754;2022-11-11T19:04:44;8.50;99.90
13375;DHT22;6756;51.354;15.754;2022-11-11T19:08:46;8.50;99.90
13375;DHT22;6756;51.354;15.754;2022-11-11T19:12:46;8.50;99.90
13375;DHT22;6756;51.354;15.754;2022-11-11T19:16:47;8.50;99.90
13375;DHT22;6756;51.354;15.754;2022-11-11T19:20:48;8.50;99.90
13375;DHT22;6756;51.354;15.754;2022-11-11T19:24:49;8.50;99.90
13375;DHT22;6756;51.354;15.754;2022-11-11T19:28:50;8.50;99.90
13375;DHT22;6756;51.354;15.754;2022-11-11T19:32:52;8.50;99.90
13375;DHT22;6756;51.354;15.754;2022-11-11T19:36:52;8.50;99.90
13375;DHT22;6756;51.354;15.754;2022-11-11T19:40:53;8.50;99.90
13375;DHT22;6756;51.354;15.754;2022-11-11T19:44:54;8.50;99.90
13375;DHT22;6756;51.354;15.754;2022-11-11T19:48:56;8.50;99.90
13375;DHT22;6756;51.354;15.754;2022-11-11T19:52:57;8.50;99.90
13375;DHT22;6756;51.354;15.754;2022-11-11T19:56:58;8.50;99.90
13375;DHT22;6756;51.354;15.754;2022-11-11T20:01:27;8.50;99.90
13375;DHT22;6756;51.354;15.754;2022-11-11T20:05:27;8.50;99.90
13375;DHT22;6756;51.354;15.754;2022-11-11T20:09:28;8.50;99.90
13375;DHT22;6756;51.354;15.754;2022-11-11T20:13:31;8.40;99.90
13375;DHT22;6756;51.354;15.754;2022-11-11T20:17:33;8.50;99.90
13375;DHT22;6756;51.354;15.754;2022-11-11T20:21:34;8.40;99.90
13375;DHT22;6756;51.354;15.754;2022-11-11T20:25:36;8.40;99.90
13375;DHT22;6756;51.354;15.754;2022-11-11T20:29:37;8.40;99.90
13375;DHT22;6756;51.354;15.754;2022-11-11T20:33:38;8.30;99.90
13375;DHT22;6756;51.354;15.754;2022-11-11T20:37:39;8.30;99.90
13375;DHT22;6756;51.354;15.754;2022-11-11T20:41:41;8.30;99.90
13375;DHT22;6756;51.354;15.754;2022-11-11T20:45:41;8.20;99.90
13375;DHT22;6756;51.354;15.754;2022-11-11T20:49:43;8.10;99.90
13375;DHT22;6756;51.354;15.754;2022-11-11T20:53:44;8.00;99.90
13375;DHT22;6756;51.354;15.754;2022-11-11T20:57:44;7.90;99.90
13375;DHT22;6756;51.354;15.754;2022-11-11T21:01:45;7.80;99.90
13375;DHT22;6756;51.354;15.754;2022-11-11T21:05:46;7.80;99.90
13375;DHT22;6756;51.354;15.754;2022-11-11T21:09:47;7.70;99.90
13375;DHT22;6756;51.354;15.754;2022-11-11T21:13:54;7.70;99.90
13375;DHT22;6756;51.354;15.754;2022-11-11T21:17:55;7.70;99.90
13375;DHT22;6756;51.354;15.754;2022-11-11T21:21:56;7.70;99.90
13375;DHT22;6756;51.354;15.754;2022-11-11T21:26:04;7.70;99.90
13375;DHT22;6756;51.354;15.754;2022-11-11T21:30:05;7.70;99.90
13375;DHT22;6756;51.354;15.754;2022-11-11T21:34:09;7.70;99.90
13375;DHT22;6756;51.354;15.754;2022-11-11T21:38:10;7.70;99.90
13375;DHT22;6756;51.354;15.754;2022-11-11T21:42:10;7.70;99.90
13375;DHT22;6756;51.354;15.754;2022-11-11T21:46:13;7.80;99.90
13375;DHT22;6756;51.354;15.754;2022-11-11T21:50:15;7.80;99.90
13375;DHT22;6756;51.354;15.754;2022-11-11T21:54:16;7.80;99.90
13375;DHT22;6756;51.354;15.754;2022-11-11T21:58:18;7.80;99.90
13375;DHT22;6756;51.354;15.754;2022-11-11T22:02:18;7.80;99.90
13375;DHT22;6756;51.354;15.754;2022-11-11T22:06:20;7.80;99.90
13375;DHT22;6756;51.354;15.754;2022-11-11T22:10:21;7.80;99.90
13375;DHT22;6756;51.354;15.754;2022-11-11T22:14:21;7.70;99.90
13375;DHT22;6756;51.354;15.754;2022-11-11T22:18:22;7.60;99.90
13375;DHT22;6756;51.354;15.754;2022-11-11T22:22:23;7.50;99.90
13375;DHT22;6756;51.354;15.754;2022-11-11T22:26:25;7.50;99.90
13375;DHT22;6756;51.354;15.754;2022-11-11T22:30:27;7.40;99.90
13375;DHT22;6756;51.354;15.754;2022-11-11T22:34:28;7.40;99.90
13375;DHT22;6756;51.354;15.754;2022-11-11T22:38:28;7.40;99.90
13375;DHT22;6756;51.354;15.754;2022-11-11T22:42:29;7.40;99.90
13375;DHT22;6756;51.354;15.754;2022-11-11T22:46:31;7.40;99.90
13375;DHT22;6756;51.354;15.754;2022-11-11T22:50:32;7.30;99.90
13375;DHT22;6756;51.354;15.754;2022-11-11T22:54:33;7.30;99.90
13375;DHT22;6756;51.354;15.754;2022-11-11T22:58:35;7.40;99.90
13375;DHT22;6756;51.354;15.754;2022-11-11T23:02:36;7.40;99.90
13375;DHT22;6756;51.354;15.754;2022-11-11T23:06:37;7.40;99.90
13375;DHT22;6756;51.354;15.754;2022-11-11T23:10:40;7.40;99.90
13375;DHT22;6756;51.354;15.754;2022-11-11T23:14:41;7.40;99.90
13375;DHT22;6756;51.354;15.754;2022-11-11T23:18:42;7.40;99.90
13375;DHT22;6756;51.354;15.754;2022-11-11T23:22:43;7.40;99.90
13375;DHT22;6756;51.354;15.754;2022-11-11T23:26:44;7.30;99.90
13375;DHT22;6756;51.354;15.754;2022-11-11T23:30:45;7.40;99.90
13375;DHT22;6756;51.354;15.754;2022-11-11T23:34:46;7.40;99.90
13375;DHT22;6756;51.354;15.754;2022-11-11T23:38:48;7.30;99.90
13375;DHT22;6756;51.354;15.754;2022-11-11T23:42:48;7.30;99.90
13375;DHT22;6756;51.354;15.754;2022-11-11T23:46:50;7.40;99.90
13375;DHT22;6756;51.354;15.754;2022-11-11T23:50:51;7.30;99.90
13375;DHT22;6756;51.354;15.754;2022-11-11T23:54:52;7.30;99.90
13375;DHT22;6756;51.354;15.754;2022-11-11T23:58:52;7.30;99.90
